createdAt,value
2019-04-01T00:03:21.421Z,2.90
2019-04-01T00:07:25.570Z,3.00
2019-04-01T00:11:29.589Z,3.20
2019-04-01T00:15:33.665Z,3.53
2019-04-01T00:19:37.820Z,2.80
2019-04-01T00:23:41.714Z,3.20
2019-04-01T00:27:45.839Z,2.70
2019-04-01T00:31:49.826Z,2.80
2019-04-01T00:35:54.072Z,2.87
2019-04-01T00:39:57.949Z,2.90
2019-04-01T00:44:09.009Z,3.20
2019-04-01T00:48:12.973Z,2.90
2019-04-01T00:52:16.984Z,3.73
2019-04-01T00:56:21.032Z,3.40
2019-04-01T01:00:25.165Z,2.93
2019-04-01T01:04:29.152Z,3.10
2019-04-01T01:08:33.321Z,3.27
2019-04-01T01:12:37.443Z,3.30
2019-04-01T01:16:41.534Z,2.60
2019-04-01T01:20:45.894Z,3.43
2019-04-01T01:24:49.886Z,2.73
2019-04-01T01:28:55.238Z,3.00
2019-04-01T01:32:59.321Z,2.87
2019-04-01T01:37:03.461Z,3.17
2019-04-01T01:41:07.471Z,3.07
2019-04-01T01:45:11.654Z,3.03
2019-04-01T01:49:15.765Z,2.90
2019-04-01T01:53:19.765Z,3.27
2019-04-01T01:57:23.843Z,3.10
2019-04-01T02:01:27.923Z,3.20
2019-04-01T02:05:32.009Z,3.63
2019-04-01T02:09:36.242Z,3.00
2019-04-01T02:13:40.405Z,3.13
2019-04-01T02:17:44.463Z,3.10
2019-04-01T02:21:48.433Z,3.27
2019-04-01T02:25:52.485Z,3.43
2019-04-01T02:29:56.526Z,2.87
2019-04-01T02:34:00.523Z,3.40
2019-04-01T02:38:04.628Z,3.30
2019-04-01T02:42:08.723Z,3.50
2019-04-01T02:46:12.844Z,3.60
2019-04-01T02:50:16.981Z,3.30
2019-04-01T02:54:21.153Z,3.23
2019-04-01T02:58:25.107Z,3.10
2019-04-01T03:02:29.222Z,2.77
2019-04-01T03:06:33.440Z,3.20
2019-04-01T03:10:37.541Z,3.27
2019-04-01T03:14:41.507Z,3.47
2019-04-01T03:18:45.427Z,3.47
2019-04-01T03:22:49.483Z,3.27
2019-04-01T03:26:53.547Z,3.33
2019-04-01T03:30:57.751Z,3.17
2019-04-01T03:35:02.294Z,3.10
2019-04-01T03:39:06.970Z,3.33
2019-04-01T03:43:10.925Z,3.10
2019-04-01T03:47:15.022Z,2.87
2019-04-01T03:51:19.010Z,3.33
2019-04-01T03:55:23.035Z,3.47
2019-04-01T04:04:17.349Z,2.87
2019-04-01T04:08:21.559Z,3.13
2019-04-01T04:12:25.402Z,3.17
2019-04-01T04:16:30.583Z,3.40
2019-04-01T04:20:34.926Z,3.20
2019-04-01T04:24:38.995Z,3.70
2019-04-01T04:28:43.035Z,2.87
2019-04-01T04:32:46.984Z,3.53
2019-04-01T04:36:50.917Z,3.67
2019-04-01T04:40:55.017Z,3.87
2019-04-01T04:44:59.062Z,4.10
2019-04-01T04:49:03.013Z,3.63
2019-04-01T04:53:06.963Z,3.30
2019-04-01T04:57:11.102Z,3.13
2019-04-01T05:01:15.194Z,3.90
2019-04-01T05:05:19.250Z,4.07
2019-04-01T05:09:23.261Z,3.53
2019-04-01T05:13:27.228Z,3.60
2019-04-01T05:17:31.239Z,3.73
2019-04-01T05:21:35.953Z,3.70
2019-04-01T05:25:40.153Z,3.43
2019-04-01T05:29:45.050Z,3.50
2019-04-01T05:33:55.491Z,3.43
2019-04-01T05:37:56.507Z,3.50
2019-04-01T05:42:00.670Z,3.40
2019-04-01T05:46:04.690Z,3.20
2019-04-01T05:50:08.897Z,3.80
2019-04-01T05:54:12.912Z,3.27
2019-04-01T05:58:17.018Z,3.47
2019-04-01T06:02:21.164Z,3.50
2019-04-01T06:06:25.148Z,3.90
2019-04-01T06:10:30.412Z,3.73
2019-04-01T06:14:35.635Z,3.70
2019-04-01T06:18:47.203Z,3.33
2019-04-01T06:22:51.292Z,3.23
2019-04-01T06:26:55.680Z,3.77
2019-04-01T06:30:59.799Z,4.03
2019-04-01T06:35:04.265Z,3.97
2019-04-01T06:39:08.385Z,3.60
2019-04-01T06:43:12.518Z,4.10
2019-04-01T06:47:16.580Z,3.80
2019-04-01T06:51:20.802Z,3.47
2019-04-01T06:55:25.013Z,3.90
2019-04-01T06:59:29.082Z,3.77
2019-04-01T07:03:33.224Z,4.50
2019-04-01T07:07:38.846Z,4.60
2019-04-01T07:11:43.083Z,4.63
2019-04-01T07:15:47.301Z,4.10
2019-04-01T07:19:51.481Z,4.33
2019-04-01T07:23:55.655Z,3.70
2019-04-01T07:27:59.780Z,5.30
2019-04-01T07:32:03.688Z,3.90
2019-04-01T07:36:07.756Z,4.73
2019-04-01T07:40:13.969Z,4.40
2019-04-01T07:44:17.736Z,5.00
2019-04-01T07:48:21.891Z,5.00
2019-04-01T07:52:25.795Z,5.23
2019-04-01T07:56:29.904Z,5.27
2019-04-01T08:00:34.044Z,5.33
2019-04-01T08:04:38.199Z,5.23
2019-04-01T08:08:46.038Z,5.13
2019-04-01T08:12:48.101Z,5.27
2019-04-01T08:16:52.259Z,4.27
2019-04-01T08:20:56.430Z,5.20
2019-04-01T08:25:00.527Z,6.20
2019-04-01T08:29:04.735Z,6.07
2019-04-01T08:33:08.791Z,6.17
2019-04-01T08:37:12.946Z,6.67
2019-04-01T08:41:16.957Z,6.90
2019-04-01T08:45:21.082Z,6.90
2019-04-01T08:49:25.468Z,6.97
2019-04-01T08:53:29.563Z,6.93
2019-04-01T08:57:33.590Z,7.17
2019-04-01T09:01:38.014Z,7.37
2019-04-01T09:05:42.083Z,6.90
2019-04-01T09:09:46.565Z,8.28
2019-04-01T09:13:51.958Z,7.67
2019-04-01T09:17:56.115Z,7.85
2019-04-01T09:22:00.203Z,8.70
2019-04-01T09:26:04.458Z,7.97
2019-04-01T09:30:09.020Z,7.83
2019-04-01T09:34:13.152Z,7.75
2019-04-01T09:38:17.443Z,7.75
2019-04-01T09:42:21.531Z,8.30
2019-04-01T09:46:25.606Z,7.42
2019-04-01T09:50:29.764Z,6.85
2019-04-01T09:54:33.844Z,7.50
2019-04-01T09:58:39.093Z,7.53
2019-04-01T10:02:43.323Z,8.23
2019-04-01T10:06:47.392Z,8.30
2019-04-01T10:10:51.565Z,8.40
2019-04-01T10:14:55.708Z,8.43
2019-04-01T10:19:00.247Z,8.40
2019-04-01T10:23:04.375Z,8.13
2019-04-01T10:27:09.563Z,7.53
2019-04-01T10:31:13.726Z,7.47
2019-04-01T10:35:17.969Z,7.85
2019-04-01T10:39:22.046Z,8.43
2019-04-01T10:43:27.980Z,6.95
2019-04-01T10:47:32.102Z,8.70
2019-04-01T10:51:36.262Z,9.23
2019-04-01T10:55:40.610Z,9.18
2019-04-01T10:59:44.773Z,8.13
2019-04-01T11:03:48.972Z,8.10
2019-04-01T11:07:53.338Z,7.92
2019-04-01T11:11:57.555Z,9.18
2019-04-01T11:16:01.872Z,7.37
2019-04-01T11:20:06.387Z,14.30
2019-04-01T11:24:11.513Z,9.50
2019-04-01T11:28:15.639Z,7.55
2019-04-01T11:32:19.840Z,7.58
2019-04-01T11:36:24.093Z,8.33
2019-04-01T11:40:28.096Z,7.97
2019-04-01T11:44:32.224Z,7.83
2019-04-01T11:48:36.261Z,6.53
2019-04-01T11:52:40.389Z,7.67
2019-04-01T11:56:44.554Z,6.97
2019-04-01T12:00:48.683Z,6.95
2019-04-01T12:04:53.036Z,8.45
2019-04-01T12:08:58.852Z,7.28
2019-04-01T12:13:04.382Z,7.95
2019-04-01T12:17:09.650Z,7.92
2019-04-01T12:21:13.773Z,8.28
2019-04-01T12:25:18.010Z,8.40
2019-04-01T12:29:22.160Z,7.97
2019-04-01T12:33:26.669Z,7.97
2019-04-01T12:37:30.978Z,7.78
2019-04-01T12:41:36.421Z,7.30
2019-04-01T12:45:40.570Z,9.05
2019-04-01T12:49:44.626Z,9.03
2019-04-01T12:53:48.681Z,9.35
2019-04-01T12:57:52.767Z,8.95
2019-04-01T13:01:56.885Z,8.10
2019-04-01T13:06:01.013Z,9.05
2019-04-01T13:10:05.361Z,9.58
2019-04-01T13:14:09.517Z,10.08
2019-04-01T13:18:13.728Z,10.00
2019-04-01T13:22:17.865Z,8.08
2019-04-01T13:26:22.078Z,9.18
2019-04-01T13:30:26.400Z,9.58
2019-04-01T13:34:30.822Z,9.13
2019-04-01T13:38:34.972Z,8.80
2019-04-01T13:42:39.218Z,9.58
2019-04-01T13:46:43.287Z,9.93
2019-04-01T13:50:47.455Z,7.92
2019-04-01T13:54:51.993Z,10.88
2019-04-01T13:58:56.114Z,9.30
2019-04-01T14:03:00.507Z,9.43
2019-04-01T14:07:05.985Z,11.33
2019-04-01T14:11:10.177Z,9.53
2019-04-01T14:15:15.872Z,8.03
2019-04-01T14:19:20.035Z,9.40
2019-04-01T14:23:24.166Z,7.97
2019-04-01T14:27:28.304Z,8.18
2019-04-01T14:31:32.436Z,8.73
2019-04-01T14:35:36.620Z,8.10
2019-04-01T14:39:41.001Z,7.92
2019-04-01T14:43:45.049Z,7.42
2019-04-01T14:47:57.234Z,8.75
2019-04-01T14:51:56.005Z,7.80
2019-04-01T14:56:00.106Z,9.55
2019-04-01T15:00:05.092Z,9.38
2019-04-01T15:04:10.690Z,8.85
2019-04-01T15:08:15.174Z,9.50
2019-04-01T15:12:20.870Z,10.10
2019-04-01T15:16:24.945Z,9.05
2019-04-01T15:20:29.099Z,8.03
2019-04-01T15:24:33.201Z,9.10
2019-04-01T15:28:37.367Z,9.63
2019-04-01T15:32:41.505Z,9.40
2019-04-01T15:36:45.762Z,7.75
2019-04-01T15:40:49.926Z,8.03
2019-04-01T15:44:54.124Z,8.50
2019-04-01T15:48:58.221Z,8.58
2019-04-01T15:53:02.585Z,8.35
2019-04-01T15:57:06.717Z,8.63
2019-04-01T16:01:10.970Z,8.75
2019-04-01T16:05:15.153Z,9.03
2019-04-01T16:09:19.335Z,7.83
2019-04-01T16:13:23.522Z,6.45
2019-04-01T16:17:27.649Z,8.25
2019-04-01T16:21:31.770Z,7.70
2019-04-01T16:25:37.744Z,9.58
2019-04-01T16:29:41.825Z,8.85
2019-04-01T16:33:45.849Z,10.23
2019-04-01T16:37:50.055Z,9.40
2019-04-01T16:41:54.240Z,10.30
2019-04-01T16:45:58.284Z,9.95
2019-04-01T16:50:02.492Z,8.38
2019-04-01T16:54:06.693Z,9.15
2019-04-01T16:58:10.786Z,8.50
2019-04-01T17:02:18.358Z,9.15
2019-04-01T17:06:20.927Z,9.05
2019-04-01T17:10:25.536Z,9.30
2019-04-01T17:14:29.760Z,8.65
2019-04-01T17:18:34.050Z,8.75
2019-04-01T17:22:38.981Z,7.75
2019-04-01T17:26:56.411Z,8.10
2019-04-01T17:31:00.710Z,9.10
2019-04-01T17:35:06.006Z,8.95
2019-04-01T17:39:12.410Z,9.20
2019-04-01T17:43:16.980Z,8.75
2019-04-01T17:47:22.180Z,8.58
2019-04-01T17:51:26.376Z,8.65
2019-04-01T17:55:30.506Z,8.60
2019-04-01T17:59:34.811Z,9.05
2019-04-01T18:03:38.922Z,9.10
2019-04-01T18:07:42.973Z,8.55
2019-04-01T18:11:47.117Z,8.20
2019-04-01T18:15:51.495Z,8.70
2019-04-01T18:19:55.759Z,8.75
2019-04-01T18:24:00.011Z,8.50
2019-04-01T18:28:04.198Z,9.00
2019-04-01T18:32:08.364Z,8.38
2019-04-01T18:36:12.527Z,8.75
2019-04-01T18:40:31.542Z,8.90
2019-04-01T18:44:25.281Z,8.33
2019-04-01T18:48:29.838Z,8.48
2019-04-01T18:52:38.210Z,8.73
2019-04-01T18:56:42.129Z,8.47
2019-04-01T19:00:47.208Z,7.73
2019-04-01T19:04:52.780Z,7.65
2019-04-01T19:09:08.658Z,8.47
2019-04-01T19:13:12.266Z,7.30
2019-04-01T19:17:14.454Z,7.33
2019-04-01T19:21:18.964Z,7.10
2019-04-01T19:25:23.511Z,7.20
2019-04-01T19:29:28.061Z,6.73
2019-04-01T19:33:32.114Z,7.00
2019-04-01T19:37:36.022Z,6.47
2019-04-01T19:41:40.328Z,6.70
2019-04-01T19:45:44.437Z,6.67
2019-04-01T19:49:48.449Z,7.07
2019-04-01T19:53:53.282Z,6.10
2019-04-01T19:57:57.658Z,6.57
2019-04-01T20:02:01.676Z,6.80
2019-04-01T20:06:07.397Z,5.83
2019-04-01T20:10:11.577Z,6.13
2019-04-01T20:14:15.870Z,5.93
2019-04-01T20:18:19.816Z,5.27
2019-04-01T20:22:24.039Z,5.97
2019-04-01T20:26:28.277Z,5.67
2019-04-01T20:30:32.316Z,6.20
2019-04-01T20:34:36.358Z,6.63
2019-04-01T20:38:40.329Z,6.30
2019-04-01T20:42:44.312Z,6.80
2019-04-01T20:46:48.355Z,6.87
2019-04-01T20:50:54.883Z,6.07
2019-04-01T20:54:58.131Z,6.17
2019-04-01T20:59:03.197Z,6.30
2019-04-01T21:03:07.221Z,6.00
2019-04-01T21:07:11.328Z,6.20
2019-04-01T21:11:15.405Z,5.90
2019-04-01T21:15:19.556Z,6.60
2019-04-01T21:19:23.671Z,6.30
2019-04-01T21:23:27.781Z,6.20
2019-04-01T21:27:31.898Z,5.73
2019-04-01T21:31:35.964Z,5.80
2019-04-01T21:35:40.009Z,4.80
2019-04-01T21:39:44.021Z,4.60
2019-04-01T21:43:48.976Z,4.47
2019-04-01T21:47:53.199Z,5.67
2019-04-01T21:51:57.237Z,5.23
2019-04-01T21:56:01.325Z,4.43
2019-04-01T22:00:06.368Z,4.50
2019-04-01T22:04:12.184Z,4.73
2019-04-01T22:08:16.109Z,4.50
2019-04-01T22:12:20.112Z,5.17
2019-04-01T22:16:24.179Z,5.00
2019-04-01T22:20:28.465Z,4.63
2019-04-01T22:24:33.038Z,4.67
2019-04-01T22:28:37.509Z,4.70
2019-04-01T22:32:42.123Z,4.87
2019-04-01T22:36:47.476Z,4.20
2019-04-01T22:40:51.569Z,4.20
2019-04-01T22:44:55.585Z,4.60
2019-04-01T22:48:59.481Z,4.50
2019-04-01T22:53:04.415Z,4.93
2019-04-01T22:57:09.084Z,4.80
2019-04-01T23:01:13.199Z,4.70
2019-04-01T23:05:17.528Z,4.03
2019-04-01T23:09:21.539Z,4.43
2019-04-01T23:13:25.515Z,4.47
2019-04-01T23:17:29.485Z,4.50
2019-04-01T23:21:33.487Z,4.37
2019-04-01T23:25:37.421Z,3.87
2019-04-01T23:29:41.534Z,3.90
2019-04-01T23:33:45.585Z,3.97
2019-04-01T23:37:49.657Z,4.23
2019-04-01T23:41:53.689Z,4.47
2019-04-01T23:45:57.774Z,3.80
2019-04-01T23:50:01.727Z,4.10
2019-04-01T23:54:06.758Z,4.60
2019-04-01T23:58:10.795Z,4.50
